sensor_id;sensor_type;location;lat;lon;timestamp;temperature;humidity
75155;HTU21D;63735;44.730;37.818;2022-12-18T00:00:30;15.13;60.42
75155;HTU21D;63735;44.730;37.818;2022-12-18T00:02:56;15.18;60.28
75155;HTU21D;63735;44.730;37.818;2022-12-18T00:05:22;15.21;60.21
75155;HTU21D;63735;44.730;37.818;2022-12-18T00:07:48;15.17;60.23
75155;HTU21D;63735;44.730;37.818;2022-12-18T00:10:14;15.17;60.32
75155;HTU21D;63735;44.730;37.818;2022-12-18T00:12:39;15.14;60.41
75155;HTU21D;63735;44.730;37.818;2022-12-18T00:15:06;15.09;60.42
75155;HTU21D;63735;44.730;37.818;2022-12-18T00:17:32;15.07;60.54
75155;HTU21D;63735;44.730;37.818;2022-12-18T00:19:58;15.01;60.65
75155;HTU21D;63735;44.730;37.818;2022-12-18T00:22:24;15.00;60.64
75155;HTU21D;63735;44.730;37.818;2022-12-18T00:24:49;15.01;60.64
75155;HTU21D;63735;44.730;37.818;2022-12-18T00:27:15;14.95;60.83
75155;HTU21D;63735;44.730;37.818;2022-12-18T00:29:41;14.89;60.92
75155;HTU21D;63735;44.730;37.818;2022-12-18T00:32:07;14.85;61.00
75155;HTU21D;63735;44.730;37.818;2022-12-18T00:34:33;14.80;61.15
75155;HTU21D;63735;44.730;37.818;2022-12-18T00:36:59;14.74;61.27
75155;HTU21D;63735;44.730;37.818;2022-12-18T00:39:25;14.75;61.29
75155;HTU21D;63735;44.730;37.818;2022-12-18T00:41:51;14.74;61.30
75155;HTU21D;63735;44.730;37.818;2022-12-18T00:44:35;14.73;61.32
75155;HTU21D;63735;44.730;37.818;2022-12-18T00:47:01;14.74;61.27
75155;HTU21D;63735;44.730;37.818;2022-12-18T00:49:27;14.78;61.22
75155;HTU21D;63735;44.730;37.818;2022-12-18T00:51:54;14.81;61.09
75155;HTU21D;63735;44.730;37.818;2022-12-18T00:54:20;14.84;61.03
75155;HTU21D;63735;44.730;37.818;2022-12-18T00:56:46;14.88;60.89
75155;HTU21D;63735;44.730;37.818;2022-12-18T00:59:11;14.97;60.58
75155;HTU21D;63735;44.730;37.818;2022-12-18T01:01:38;15.01;60.35
75155;HTU21D;63735;44.730;37.818;2022-12-18T01:04:06;15.06;60.14
75155;HTU21D;63735;44.730;37.818;2022-12-18T01:06:32;15.06;59.98
75155;HTU21D;63735;44.730;37.818;2022-12-18T01:08:57;15.12;59.74
75155;HTU21D;63735;44.730;37.818;2022-12-18T01:11:24;15.10;59.62
75155;HTU21D;63735;44.730;37.818;2022-12-18T01:13:52;15.13;59.62
75155;HTU21D;63735;44.730;37.818;2022-12-18T01:16:18;15.12;59.64
75155;HTU21D;63735;44.730;37.818;2022-12-18T01:18:44;15.13;59.58
75155;HTU21D;63735;44.730;37.818;2022-12-18T01:21:13;15.13;59.41
75155;HTU21D;63735;44.730;37.818;2022-12-18T01:23:39;15.15;59.17
75155;HTU21D;63735;44.730;37.818;2022-12-18T01:26:11;15.14;59.26
75155;HTU21D;63735;44.730;37.818;2022-12-18T01:28:38;15.10;59.44
75155;HTU21D;63735;44.730;37.818;2022-12-18T01:31:18;15.06;59.59
75155;HTU21D;63735;44.730;37.818;2022-12-18T01:33:50;14.98;59.88
75155;HTU21D;63735;44.730;37.818;2022-12-18T01:36:21;14.89;60.16
75155;HTU21D;63735;44.730;37.818;2022-12-18T01:38:48;14.84;60.37
75155;HTU21D;63735;44.730;37.818;2022-12-18T01:41:16;14.81;60.58
75155;HTU21D;63735;44.730;37.818;2022-12-18T01:44:46;14.78;60.71
75155;HTU21D;63735;44.730;37.818;2022-12-18T01:46:35;14.74;60.80
75155;HTU21D;63735;44.730;37.818;2022-12-18T01:49:01;14.73;60.84
75155;HTU21D;63735;44.730;37.818;2022-12-18T01:51:30;14.70;60.93
75155;HTU21D;63735;44.730;37.818;2022-12-18T01:53:57;14.67;61.10
75155;HTU21D;63735;44.730;37.818;2022-12-18T01:56:24;14.60;61.31
75155;HTU21D;63735;44.730;37.818;2022-12-18T01:58:58;14.49;61.63
75155;HTU21D;63735;44.730;37.818;2022-12-18T02:01:26;14.35;61.99
75155;HTU21D;63735;44.730;37.818;2022-12-18T02:03:53;14.22;62.31
75155;HTU21D;63735;44.730;37.818;2022-12-18T02:16:52;13.64;63.90
75155;HTU21D;63735;44.730;37.818;2022-12-18T02:19:46;13.55;64.05
75155;HTU21D;63735;44.730;37.818;2022-12-18T02:22:37;13.43;64.27
75155;HTU21D;63735;44.730;37.818;2022-12-18T02:27:59;13.07;64.86
75155;HTU21D;63735;44.730;37.818;2022-12-18T02:30:27;12.96;65.09
75155;HTU21D;63735;44.730;37.818;2022-12-18T02:32:56;12.88;65.38
75155;HTU21D;63735;44.730;37.818;2022-12-18T02:35:25;12.90;65.59
75155;HTU21D;63735;44.730;37.818;2022-12-18T02:37:56;12.97;65.63
75155;HTU21D;63735;44.730;37.818;2022-12-18T02:40:26;13.06;65.87
75155;HTU21D;63735;44.730;37.818;2022-12-18T02:42:52;13.23;65.88
75155;HTU21D;63735;44.730;37.818;2022-12-18T02:45:19;13.34;65.73
75155;HTU21D;63735;44.730;37.818;2022-12-18T02:47:48;13.44;65.83
75155;HTU21D;63735;44.730;37.818;2022-12-18T02:50:38;13.50;65.98
75155;HTU21D;63735;44.730;37.818;2022-12-18T02:56:16;13.53;66.56
75155;HTU21D;63735;44.730;37.818;2022-12-18T02:59:20;13.49;66.66
75155;HTU21D;63735;44.730;37.818;2022-12-18T03:02:10;13.65;66.35
75155;HTU21D;63735;44.730;37.818;2022-12-18T03:07:19;14.11;65.54
75155;HTU21D;63735;44.730;37.818;2022-12-18T03:09:50;14.27;65.21
75155;HTU21D;63735;44.730;37.818;2022-12-18T03:12:31;14.39;65.02
75155;HTU21D;63735;44.730;37.818;2022-12-18T03:15:21;14.45;64.98
75155;HTU21D;63735;44.730;37.818;2022-12-18T03:18:01;14.53;64.85
75155;HTU21D;63735;44.730;37.818;2022-12-18T03:20:31;14.62;64.65
75155;HTU21D;63735;44.730;37.818;2022-12-18T03:23:04;14.67;64.52
75155;HTU21D;63735;44.730;37.818;2022-12-18T03:25:33;14.69;64.45
75155;HTU21D;63735;44.730;37.818;2022-12-18T03:28:02;14.68;64.42
75155;HTU21D;63735;44.730;37.818;2022-12-18T03:30:29;14.70;64.34
75155;HTU21D;63735;44.730;37.818;2022-12-18T03:33:08;14.67;64.31
75155;HTU21D;63735;44.730;37.818;2022-12-18T03:35:40;14.70;64.30
75155;HTU21D;63735;44.730;37.818;2022-12-18T03:38:08;14.69;64.30
75155;HTU21D;63735;44.730;37.818;2022-12-18T03:46:16;14.64;64.39
75155;HTU21D;63735;44.730;37.818;2022-12-18T03:54:40;14.72;64.21
75155;HTU21D;63735;44.730;37.818;2022-12-18T03:57:16;14.71;64.27
75155;HTU21D;63735;44.730;37.818;2022-12-18T03:59:45;14.75;64.21
75155;HTU21D;63735;44.730;37.818;2022-12-18T04:02:16;14.74;64.22
75155;HTU21D;63735;44.730;37.818;2022-12-18T04:04:46;14.77;64.25
75155;HTU21D;63735;44.730;37.818;2022-12-18T04:07:14;14.80;64.24
75155;HTU21D;63735;44.730;37.818;2022-12-18T04:09:44;14.80;64.25
75155;HTU21D;63735;44.730;37.818;2022-12-18T04:12:12;14.82;64.27
75155;HTU21D;63735;44.730;37.818;2022-12-18T04:14:38;14.84;64.24
75155;HTU21D;63735;44.730;37.818;2022-12-18T04:17:07;14.85;64.27
75155;HTU21D;63735;44.730;37.818;2022-12-18T04:19:33;14.86;64.29
75155;HTU21D;63735;44.730;37.818;2022-12-18T04:22:01;14.86;64.29
75155;HTU21D;63735;44.730;37.818;2022-12-18T04:24:31;14.83;64.37
75155;HTU21D;63735;44.730;37.818;2022-12-18T04:27:06;14.82;64.44
75155;HTU21D;63735;44.730;37.818;2022-12-18T04:29:39;14.83;64.43
75155;HTU21D;63735;44.730;37.818;2022-12-18T04:32:05;14.83;64.47
75155;HTU21D;63735;44.730;37.818;2022-12-18T04:34:32;14.80;64.56
75155;HTU21D;63735;44.730;37.818;2022-12-18T04:36:59;14.83;64.56
75155;HTU21D;63735;44.730;37.818;2022-12-18T04:39:25;14.85;64.56
75155;HTU21D;63735;44.730;37.818;2022-12-18T04:41:54;14.87;64.52
75155;HTU21D;63735;44.730;37.818;2022-12-18T04:44:19;14.83;64.59
75155;HTU21D;63735;44.730;37.818;2022-12-18T04:46:45;14.81;64.74
75155;HTU21D;63735;44.730;37.818;2022-12-18T04:49:11;14.86;64.68
75155;HTU21D;63735;44.730;37.818;2022-12-18T04:51:38;14.88;64.66
75155;HTU21D;63735;44.730;37.818;2022-12-18T04:54:04;14.91;64.68
75155;HTU21D;63735;44.730;37.818;2022-12-18T04:56:31;14.89;64.79
75155;HTU21D;63735;44.730;37.818;2022-12-18T04:58:57;14.87;64.85
75155;HTU21D;63735;44.730;37.818;2022-12-18T05:01:24;14.88;64.84
75155;HTU21D;63735;44.730;37.818;2022-12-18T05:03:51;14.89;64.85
75155;HTU21D;63735;44.730;37.818;2022-12-18T05:06:17;14.89;64.85
75155;HTU21D;63735;44.730;37.818;2022-12-18T05:08:43;14.88;64.91
75155;HTU21D;63735;44.730;37.818;2022-12-18T05:11:12;14.89;64.92
75155;HTU21D;63735;44.730;37.818;2022-12-18T05:13:40;14.86;64.98
75155;HTU21D;63735;44.730;37.818;2022-12-18T05:16:06;14.88;65.03
75155;HTU21D;63735;44.730;37.818;2022-12-18T05:18:32;14.89;65.12
75155;HTU21D;63735;44.730;37.818;2022-12-18T05:20:58;14.91;65.29
75155;HTU21D;63735;44.730;37.818;2022-12-18T05:23:25;14.93;65.42
75155;HTU21D;63735;44.730;37.818;2022-12-18T05:25:59;14.97;65.53
75155;HTU21D;63735;44.730;37.818;2022-12-18T05:28:27;14.98;65.69
75155;HTU21D;63735;44.730;37.818;2022-12-18T05:30:54;15.00;65.79
75155;HTU21D;63735;44.730;37.818;2022-12-18T05:33:21;14.97;65.97
75155;HTU21D;63735;44.730;37.818;2022-12-18T05:35:51;14.96;66.04
75155;HTU21D;63735;44.730;37.818;2022-12-18T05:38:18;14.98;66.21
75155;HTU21D;63735;44.730;37.818;2022-12-18T05:40:44;15.09;66.24
75155;HTU21D;63735;44.730;37.818;2022-12-18T05:43:11;15.16;66.24
75155;HTU21D;63735;44.730;37.818;2022-12-18T05:45:38;15.24;66.23
75155;HTU21D;63735;44.730;37.818;2022-12-18T05:48:04;15.30;66.14
75155;HTU21D;63735;44.730;37.818;2022-12-18T05:50:33;15.29;66.20
75155;HTU21D;63735;44.730;37.818;2022-12-18T05:53:01;15.29;66.44
75155;HTU21D;63735;44.730;37.818;2022-12-18T05:55:27;15.32;66.40
75155;HTU21D;63735;44.730;37.818;2022-12-18T05:57:53;15.28;66.62
75155;HTU21D;63735;44.730;37.818;2022-12-18T06:00:19;15.18;67.20
75155;HTU21D;63735;44.730;37.818;2022-12-18T06:02:48;15.13;67.61
75155;HTU21D;63735;44.730;37.818;2022-12-18T06:05:14;15.09;68.19
75155;HTU21D;63735;44.730;37.818;2022-12-18T06:07:40;15.16;68.09
75155;HTU21D;63735;44.730;37.818;2022-12-18T06:10:06;15.32;67.79
75155;HTU21D;63735;44.730;37.818;2022-12-18T06:12:32;15.44;67.72
75155;HTU21D;63735;44.730;37.818;2022-12-18T06:15:01;15.69;67.33
75155;HTU21D;63735;44.730;37.818;2022-12-18T06:17:31;15.80;67.12
75155;HTU21D;63735;44.730;37.818;2022-12-18T06:19:57;15.69;67.81
75155;HTU21D;63735;44.730;37.818;2022-12-18T06:22:24;15.72;67.85
75155;HTU21D;63735;44.730;37.818;2022-12-18T06:24:49;15.78;67.83
75155;HTU21D;63735;44.730;37.818;2022-12-18T06:27:15;15.73;68.17
75155;HTU21D;63735;44.730;37.818;2022-12-18T06:29:41;15.69;68.40
75155;HTU21D;63735;44.730;37.818;2022-12-18T06:32:07;15.72;68.49
75155;HTU21D;63735;44.730;37.818;2022-12-18T06:34:34;15.85;68.31
75155;HTU21D;63735;44.730;37.818;2022-12-18T06:37:02;15.91;68.23
75155;HTU21D;63735;44.730;37.818;2022-12-18T06:39:28;15.92;68.34
75155;HTU21D;63735;44.730;37.818;2022-12-18T06:41:54;15.86;68.53
75155;HTU21D;63735;44.730;37.818;2022-12-18T06:44:20;15.72;69.12
75155;HTU21D;63735;44.730;37.818;2022-12-18T06:46:46;15.65;69.56
75155;HTU21D;63735;44.730;37.818;2022-12-18T06:49:12;15.70;69.56
75155;HTU21D;63735;44.730;37.818;2022-12-18T06:51:38;15.65;69.78
75155;HTU21D;63735;44.730;37.818;2022-12-18T06:54:04;15.71;69.84
75155;HTU21D;63735;44.730;37.818;2022-12-18T06:56:30;15.83;69.54
75155;HTU21D;63735;44.730;37.818;2022-12-18T06:58:56;15.85;69.52
75155;HTU21D;63735;44.730;37.818;2022-12-18T07:01:22;15.87;69.64
75155;HTU21D;63735;44.730;37.818;2022-12-18T07:03:52;15.81;69.90
75155;HTU21D;63735;44.730;37.818;2022-12-18T07:06:21;15.74;70.24
75155;HTU21D;63735;44.730;37.818;2022-12-18T07:08:48;15.70;70.42
75155;HTU21D;63735;44.730;37.818;2022-12-18T07:11:14;15.74;70.37
75155;HTU21D;63735;44.730;37.818;2022-12-18T07:13:41;15.69;70.75
75155;HTU21D;63735;44.730;37.818;2022-12-18T07:16:12;15.68;71.10
75155;HTU21D;63735;44.730;37.818;2022-12-18T07:18:38;15.77;70.98
75155;HTU21D;63735;44.730;37.818;2022-12-18T07:21:09;15.82;70.99
75155;HTU21D;63735;44.730;37.818;2022-12-18T07:23:35;15.88;71.12
75155;HTU21D;63735;44.730;37.818;2022-12-18T07:26:03;15.98;70.94
75155;HTU21D;63735;44.730;37.818;2022-12-18T07:28:30;15.93;71.07
75155;HTU21D;63735;44.730;37.818;2022-12-18T07:30:56;15.97;71.34
75155;HTU21D;63735;44.730;37.818;2022-12-18T07:33:22;16.12;70.89
75155;HTU21D;63735;44.730;37.818;2022-12-18T07:35:48;15.98;71.06
75155;HTU21D;63735;44.730;37.818;2022-12-18T07:38:14;15.73;71.52
75155;HTU21D;63735;44.730;37.818;2022-12-18T07:40:40;15.49;72.09
75155;HTU21D;63735;44.730;37.818;2022-12-18T07:43:06;15.31;72.58
75155;HTU21D;63735;44.730;37.818;2022-12-18T07:45:32;15.15;72.96
75155;HTU21D;63735;44.730;37.818;2022-12-18T07:47:58;15.02;73.32
75155;HTU21D;63735;44.730;37.818;2022-12-18T07:50:24;14.95;73.61
75155;HTU21D;63735;44.730;37.818;2022-12-18T07:52:50;14.93;73.54
75155;HTU21D;63735;44.730;37.818;2022-12-18T07:55:16;14.96;73.94
75155;HTU21D;63735;44.730;37.818;2022-12-18T07:57:42;14.91;74.66
75155;HTU21D;63735;44.730;37.818;2022-12-18T08:00:08;14.91;74.38
75155;HTU21D;63735;44.730;37.818;2022-12-18T08:02:37;14.87;74.78
75155;HTU21D;63735;44.730;37.818;2022-12-18T08:05:04;14.86;74.96
75155;HTU21D;63735;44.730;37.818;2022-12-18T08:07:30;14.85;74.80
75155;HTU21D;63735;44.730;37.818;2022-12-18T08:09:56;14.82;75.02
75155;HTU21D;63735;44.730;37.818;2022-12-18T08:12:22;14.80;75.21
75155;HTU21D;63735;44.730;37.818;2022-12-18T08:14:47;14.80;75.02
75155;HTU21D;63735;44.730;37.818;2022-12-18T08:17:13;14.75;75.60
75155;HTU21D;63735;44.730;37.818;2022-12-18T08:19:39;14.70;75.98
75155;HTU21D;63735;44.730;37.818;2022-12-18T08:22:05;14.66;76.44
75155;HTU21D;63735;44.730;37.818;2022-12-18T08:24:31;14.59;77.24
75155;HTU21D;63735;44.730;37.818;2022-12-18T08:26:57;14.52;78.11
75155;HTU21D;63735;44.730;37.818;2022-12-18T08:29:23;14.49;78.35
75155;HTU21D;63735;44.730;37.818;2022-12-18T08:31:49;14.48;78.19
75155;HTU21D;63735;44.730;37.818;2022-12-18T08:34:15;14.48;78.34
75155;HTU21D;63735;44.730;37.818;2022-12-18T08:36:41;14.48;78.36
75155;HTU21D;63735;44.730;37.818;2022-12-18T08:39:07;14.44;78.92
75155;HTU21D;63735;44.730;37.818;2022-12-18T08:41:33;14.45;79.08
75155;HTU21D;63735;44.730;37.818;2022-12-18T08:43:59;14.49;79.04
75155;HTU21D;63735;44.730;37.818;2022-12-18T08:46:44;14.57;78.52
75155;HTU21D;63735;44.730;37.818;2022-12-18T08:49:11;14.64;78.26
75155;HTU21D;63735;44.730;37.818;2022-12-18T08:51:38;14.70;78.08
75155;HTU21D;63735;44.730;37.818;2022-12-18T08:54:05;14.69;78.34
75155;HTU21D;63735;44.730;37.818;2022-12-18T08:56:31;14.67;78.38
75155;HTU21D;63735;44.730;37.818;2022-12-18T08:58:57;14.69;78.19
75155;HTU21D;63735;44.730;37.818;2022-12-18T09:01:23;14.68;78.20
75155;HTU21D;63735;44.730;37.818;2022-12-18T09:03:50;14.67;78.24
75155;HTU21D;63735;44.730;37.818;2022-12-18T09:06:18;14.62;78.32
75155;HTU21D;63735;44.730;37.818;2022-12-18T09:08:44;14.58;78.34
75155;HTU21D;63735;44.730;37.818;2022-12-18T09:11:29;14.56;78.44
75155;HTU21D;63735;44.730;37.818;2022-12-18T09:13:56;14.56;78.30
75155;HTU21D;63735;44.730;37.818;2022-12-18T09:16:24;14.49;78.66
75155;HTU21D;63735;44.730;37.818;2022-12-18T09:18:50;14.44;78.74
75155;HTU21D;63735;44.730;37.818;2022-12-18T09:21:18;14.36;79.00
75155;HTU21D;63735;44.730;37.818;2022-12-18T09:23:50;14.33;79.32
75155;HTU21D;63735;44.730;37.818;2022-12-18T09:26:16;14.30;79.30
75155;HTU21D;63735;44.730;37.818;2022-12-18T09:28:42;14.29;79.59
75155;HTU21D;63735;44.730;37.818;2022-12-18T09:31:10;14.28;79.49
75155;HTU21D;63735;44.730;37.818;2022-12-18T09:33:36;14.30;79.61
75155;HTU21D;63735;44.730;37.818;2022-12-18T09:36:04;14.33;79.58
75155;HTU21D;63735;44.730;37.818;2022-12-18T09:38:31;14.36;79.94
75155;HTU21D;63735;44.730;37.818;2022-12-18T09:41:00;14.37;79.88
75155;HTU21D;63735;44.730;37.818;2022-12-18T09:43:30;14.39;80.26
75155;HTU21D;63735;44.730;37.818;2022-12-18T09:46:06;14.45;80.37
75155;HTU21D;63735;44.730;37.818;2022-12-18T09:48:40;14.55;80.27
75155;HTU21D;63735;44.730;37.818;2022-12-18T09:51:29;14.60;80.29
75155;HTU21D;63735;44.730;37.818;2022-12-18T09:54:04;14.69;80.01
75155;HTU21D;63735;44.730;37.818;2022-12-18T09:56:36;14.71;79.98
75155;HTU21D;63735;44.730;37.818;2022-12-18T09:59:04;14.69;80.00
75155;HTU21D;63735;44.730;37.818;2022-12-18T10:01:32;14.73;79.89
75155;HTU21D;63735;44.730;37.818;2022-12-18T10:03:57;14.78;79.77
75155;HTU21D;63735;44.730;37.818;2022-12-18T10:06:34;14.77;79.68
75155;HTU21D;63735;44.730;37.818;2022-12-18T10:09:11;14.70;79.76
75155;HTU21D;63735;44.730;37.818;2022-12-18T10:17:20;14.57;80.18
75155;HTU21D;63735;44.730;37.818;2022-12-18T10:19:58;14.52;80.25
75155;HTU21D;63735;44.730;37.818;2022-12-18T10:22:27;14.48;80.67
75155;HTU21D;63735;44.730;37.818;2022-12-18T10:27:39;14.50;80.33
75155;HTU21D;63735;44.730;37.818;2022-12-18T10:30:13;14.45;80.50
75155;HTU21D;63735;44.730;37.818;2022-12-18T10:32:40;14.41;80.79
75155;HTU21D;63735;44.730;37.818;2022-12-18T10:35:24;14.41;80.79
75155;HTU21D;63735;44.730;37.818;2022-12-18T10:41:03;14.36;80.74
75155;HTU21D;63735;44.730;37.818;2022-12-18T10:48:55;14.22;80.94
75155;HTU21D;63735;44.730;37.818;2022-12-18T10:51:30;14.17;81.21
75155;HTU21D;63735;44.730;37.818;2022-12-18T10:54:05;14.17;81.23
75155;HTU21D;63735;44.730;37.818;2022-12-18T10:56:35;14.17;81.21
75155;HTU21D;63735;44.730;37.818;2022-12-18T10:59:08;14.17;81.50
75155;HTU21D;63735;44.730;37.818;2022-12-18T11:01:57;14.15;81.68
75155;HTU21D;63735;44.730;37.818;2022-12-18T11:04:28;14.14;81.72
75155;HTU21D;63735;44.730;37.818;2022-12-18T11:07:06;14.14;81.95
75155;HTU21D;63735;44.730;37.818;2022-12-18T11:09:37;14.13;82.28
75155;HTU21D;63735;44.730;37.818;2022-12-18T11:12:17;14.13;82.40
75155;HTU21D;63735;44.730;37.818;2022-12-18T11:14:47;14.11;82.69
75155;HTU21D;63735;44.730;37.818;2022-12-18T11:17:20;14.10;82.98
75155;HTU21D;63735;44.730;37.818;2022-12-18T11:20:39;14.11;83.00
75155;HTU21D;63735;44.730;37.818;2022-12-18T11:23:04;14.10;82.75
75155;HTU21D;63735;44.730;37.818;2022-12-18T11:25:32;14.08;83.01
75155;HTU21D;63735;44.730;37.818;2022-12-18T11:28:25;14.08;83.08
75155;HTU21D;63735;44.730;37.818;2022-12-18T11:31:20;14.09;82.88
75155;HTU21D;63735;44.730;37.818;2022-12-18T11:36:22;14.06;82.52
75155;HTU21D;63735;44.730;37.818;2022-12-18T11:38:49;14.07;82.53
75155;HTU21D;63735;44.730;37.818;2022-12-18T11:41:27;14.07;82.75
75155;HTU21D;63735;44.730;37.818;2022-12-18T11:44:21;14.07;82.86
75155;HTU21D;63735;44.730;37.818;2022-12-18T11:46:59;14.08;82.95
75155;HTU21D;63735;44.730;37.818;2022-12-18T11:49:30;14.12;82.72
75155;HTU21D;63735;44.730;37.818;2022-12-18T11:52:15;14.14;82.59
75155;HTU21D;63735;44.730;37.818;2022-12-18T11:54:42;14.13;82.52
75155;HTU21D;63735;44.730;37.818;2022-12-18T12:08:02;13.59;82.89
75155;HTU21D;63735;44.730;37.818;2022-12-18T12:16:22;13.35;82.95
75155;HTU21D;63735;44.730;37.818;2022-12-18T12:29:39;13.00;83.54
75155;HTU21D;63735;44.730;37.818;2022-12-18T12:37:43;12.88;83.28
75155;HTU21D;63735;44.730;37.818;2022-12-18T12:40:18;12.82;83.20
75155;HTU21D;63735;44.730;37.818;2022-12-18T12:42:52;12.79;83.16
75155;HTU21D;63735;44.730;37.818;2022-12-18T12:48:18;12.67;83.04
75155;HTU21D;63735;44.730;37.818;2022-12-18T12:50:45;12.62;83.00
75155;HTU21D;63735;44.730;37.818;2022-12-18T12:53:22;12.55;83.04
75155;HTU21D;63735;44.730;37.818;2022-12-18T12:55:50;12.52;83.02
75155;HTU21D;63735;44.730;37.818;2022-12-18T12:58:33;12.51;83.03
75155;HTU21D;63735;44.730;37.818;2022-12-18T13:07:11;12.41;82.92
75155;HTU21D;63735;44.730;37.818;2022-12-18T13:10:31;12.38;82.95
75155;HTU21D;63735;44.730;37.818;2022-12-18T13:12:55;12.35;82.79
75155;HTU21D;63735;44.730;37.818;2022-12-18T13:23:23;12.01;82.92
75155;HTU21D;63735;44.730;37.818;2022-12-18T13:36:42;11.49;83.23
75155;HTU21D;63735;44.730;37.818;2022-12-18T13:39:22;11.42;83.30
75155;HTU21D;63735;44.730;37.818;2022-12-18T13:44:57;11.25;83.36
75155;HTU21D;63735;44.730;37.818;2022-12-18T13:47:34;11.18;83.51
75155;HTU21D;63735;44.730;37.818;2022-12-18T13:50:20;11.17;83.49
75155;HTU21D;63735;44.730;37.818;2022-12-18T13:52:51;11.15;83.44
75155;HTU21D;63735;44.730;37.818;2022-12-18T13:55:19;11.12;83.43
75155;HTU21D;63735;44.730;37.818;2022-12-18T13:57:45;11.09;83.39
75155;HTU21D;63735;44.730;37.818;2022-12-18T14:00:26;11.04;83.46
75155;HTU21D;63735;44.730;37.818;2022-12-18T14:02:55;11.02;83.36
75155;HTU21D;63735;44.730;37.818;2022-12-18T14:05:28;10.99;83.29
75155;HTU21D;63735;44.730;37.818;2022-12-18T14:08:05;10.94;83.33
75155;HTU21D;63735;44.730;37.818;2022-12-18T14:10:32;10.90;83.36
75155;HTU21D;63735;44.730;37.818;2022-12-18T14:13:06;10.87;83.34
75155;HTU21D;63735;44.730;37.818;2022-12-18T14:18:34;10.79;83.19
75155;HTU21D;63735;44.730;37.818;2022-12-18T14:21:03;10.72;83.15
75155;HTU21D;63735;44.730;37.818;2022-12-18T14:25:59;10.60;83.07
75155;HTU21D;63735;44.730;37.818;2022-12-18T14:28:25;10.58;83.06
75155;HTU21D;63735;44.730;37.818;2022-12-18T14:30:52;10.59;82.92
75155;HTU21D;63735;44.730;37.818;2022-12-18T14:33:24;10.56;82.83
75155;HTU21D;63735;44.730;37.818;2022-12-18T14:36:00;10.53;82.75
75155;HTU21D;63735;44.730;37.818;2022-12-18T14:38:37;10.50;82.59
75155;HTU21D;63735;44.730;37.818;2022-12-18T14:41:11;10.44;82.49
75155;HTU21D;63735;44.730;37.818;2022-12-18T14:43:39;10.42;82.37
75155;HTU21D;63735;44.730;37.818;2022-12-18T14:46:35;10.37;82.31
75155;HTU21D;63735;44.730;37.818;2022-12-18T14:49:31;10.41;82.21
75155;HTU21D;63735;44.730;37.818;2022-12-18T14:52:00;10.36;81.97
75155;HTU21D;63735;44.730;37.818;2022-12-18T14:54:28;10.24;81.87
75155;HTU21D;63735;44.730;37.818;2022-12-18T14:57:05;10.19;82.05
75155;HTU21D;63735;44.730;37.818;2022-12-18T14:59:31;10.23;82.00
75155;HTU21D;63735;44.730;37.818;2022-12-18T15:02:23;10.23;81.87
75155;HTU21D;63735;44.730;37.818;2022-12-18T15:07:46;10.09;81.55
75155;HTU21D;63735;44.730;37.818;2022-12-18T15:10:19;9.96;82.08
75155;HTU21D;63735;44.730;37.818;2022-12-18T15:26:08;9.92;80.71
75155;HTU21D;63735;44.730;37.818;2022-12-18T15:31:22;9.86;80.81
75155;HTU21D;63735;44.730;37.818;2022-12-18T15:36:19;10.09;80.80
75155;HTU21D;63735;44.730;37.818;2022-12-18T15:38:47;10.11;80.60
75155;HTU21D;63735;44.730;37.818;2022-12-18T15:41:15;10.05;80.62
75155;HTU21D;63735;44.730;37.818;2022-12-18T15:43:41;10.06;80.65
75155;HTU21D;63735;44.730;37.818;2022-12-18T15:46:18;10.03;80.64
75155;HTU21D;63735;44.730;37.818;2022-12-18T15:48:49;10.04;80.62
75155;HTU21D;63735;44.730;37.818;2022-12-18T15:51:21;10.04;80.62
75155;HTU21D;63735;44.730;37.818;2022-12-18T15:53:51;10.05;80.46
75155;HTU21D;63735;44.730;37.818;2022-12-18T15:56:17;10.06;80.32
75155;HTU21D;63735;44.730;37.818;2022-12-18T15:59:02;10.12;80.06
75155;HTU21D;63735;44.730;37.818;2022-12-18T16:01:30;10.18;79.76
75155;HTU21D;63735;44.730;37.818;2022-12-18T16:03:56;10.20;79.53
75155;HTU21D;63735;44.730;37.818;2022-12-18T16:06:23;10.28;79.15
75155;HTU21D;63735;44.730;37.818;2022-12-18T16:08:49;10.30;78.70
75155;HTU21D;63735;44.730;37.818;2022-12-18T16:14:05;10.28;78.27
75155;HTU21D;63735;44.730;37.818;2022-12-18T16:16:31;10.25;78.28
75155;HTU21D;63735;44.730;37.818;2022-12-18T16:18:57;10.23;78.43
75155;HTU21D;63735;44.730;37.818;2022-12-18T16:21:23;10.30;78.43
75155;HTU21D;63735;44.730;37.818;2022-12-18T16:23:48;10.35;78.25
75155;HTU21D;63735;44.730;37.818;2022-12-18T16:26:14;10.27;78.30
75155;HTU21D;63735;44.730;37.818;2022-12-18T16:28:40;10.20;78.41
75155;HTU21D;63735;44.730;37.818;2022-12-18T16:31:07;10.09;78.49
75155;HTU21D;63735;44.730;37.818;2022-12-18T16:33:33;10.06;78.53
75155;HTU21D;63735;44.730;37.818;2022-12-18T16:35:59;9.93;78.51
75155;HTU21D;63735;44.730;37.818;2022-12-18T16:38:25;9.76;78.76
75155;HTU21D;63735;44.730;37.818;2022-12-18T16:40:51;9.61;79.06
75155;HTU21D;63735;44.730;37.818;2022-12-18T16:43:36;9.46;79.45
75155;HTU21D;63735;44.730;37.818;2022-12-18T16:46:01;9.35;79.49
75155;HTU21D;63735;44.730;37.818;2022-12-18T16:48:27;9.23;79.55
75155;HTU21D;63735;44.730;37.818;2022-12-18T16:51:04;9.14;79.73
75155;HTU21D;63735;44.730;37.818;2022-12-18T16:53:32;9.06;79.68
75155;HTU21D;63735;44.730;37.818;2022-12-18T16:55:58;9.01;79.65
75155;HTU21D;63735;44.730;37.818;2022-12-18T16:58:23;8.94;79.44
75155;HTU21D;63735;44.730;37.818;2022-12-18T17:00:49;8.83;79.54
75155;HTU21D;63735;44.730;37.818;2022-12-18T17:03:15;8.80;79.45
75155;HTU21D;63735;44.730;37.818;2022-12-18T17:05:41;8.77;79.41
75155;HTU21D;63735;44.730;37.818;2022-12-18T17:08:07;8.67;79.33
75155;HTU21D;63735;44.730;37.818;2022-12-18T17:10:36;8.61;79.34
75155;HTU21D;63735;44.730;37.818;2022-12-18T17:13:02;8.48;79.35
75155;HTU21D;63735;44.730;37.818;2022-12-18T17:15:28;8.34;79.42
75155;HTU21D;63735;44.730;37.818;2022-12-18T17:17:53;8.21;79.59
75155;HTU21D;63735;44.730;37.818;2022-12-18T17:20:19;8.17;79.56
75155;HTU21D;63735;44.730;37.818;2022-12-18T17:22:45;8.16;79.46
75155;HTU21D;63735;44.730;37.818;2022-12-18T17:25:11;8.11;79.43
75155;HTU21D;63735;44.730;37.818;2022-12-18T17:27:37;8.01;79.47
75155;HTU21D;63735;44.730;37.818;2022-12-18T17:30:03;7.91;79.48
75155;HTU21D;63735;44.730;37.818;2022-12-18T17:32:29;7.85;79.55
75155;HTU21D;63735;44.730;37.818;2022-12-18T17:34:55;7.85;79.39
75155;HTU21D;63735;44.730;37.818;2022-12-18T17:37:21;7.81;79.38
75155;HTU21D;63735;44.730;37.818;2022-12-18T17:39:47;7.78;79.36
75155;HTU21D;63735;44.730;37.818;2022-12-18T17:42:13;7.70;79.21